x

Pensacola - 115nm Ese Of Pensacola, Fl (42039) Wave Buoy

7:50pm - Fri 28th Nov 2014 All times are CST. -6 hours from GMT.

  • Sig Wave height 2.3ft
  • Swell Direction
  • Peak Period 6s
  • Average Period 4s
  • Wind
    9mph, 13mph gusts
  • Sea Temp 75°f
  • Air Temp 59°f
  • Sea Pressure 1026.5mb
  • Pensacola - 115nm Ese Of Pensacola, Fl
  • Pensacola - 115nm Ese Of Pensacola, Fl

More Historic Weather Station data

Upgrade to MSW Pro to gain access to the past 30 days of data for over 8000 Wavebouys and Weather Stations around the globe.

Join Pro

Comparision Forecast

View Surf forecast
   
Fri 11/28 7:50pm 2.5ft 6s 4s 9 13 mph 1026.5mb 75f 59f
6:50pm 2.5ft 6s 4s 9 16 mph 1026.6mb 75f 58f
5:50pm 3ft 5s 4s 9 13 mph 1026.6mb 75f 57f
4:50pm 3ft 6s 5s 11 13 mph 1026.4mb 75f 57f
3:50pm 3.5ft 6s 4s 11 16 mph 1026.2mb 75f 57f
2:50pm 3.5ft 5s 5s 11 16 mph 1026.3mb 75f 56f
1:50pm 3.5ft 6s 5s 11 13 mph 1026.3mb 75f 55f
12:50pm 4ft 5s 4s 11 16 mph 1027mb 75f 55f
11:50am 4.5ft 6s 5s 13 20 mph 1027.9mb 75f 55f
10:50am 5ft 5s 5s 16 22 mph 1028.8mb 75f 54f
9:50am 5.5ft 6s 5s 16 22 mph 1029.2mb 75f 54f
8:50am 5.5ft 6s 5s 18 22 mph 1029.1mb 75f 54f
7:50am 5.5ft 6s 5s 18 22 mph 1028.9mb 75f 54f
6:50am 5.5ft 6s 5s 18 22 mph 1028.7mb 75f 54f
5:50am 6ft 6s 5s 18 22 mph 1028.1mb 75f 54f
4:50am 6ft 6s 5s 20 25 mph 1027.7mb 75f 54f
3:50am 6ft 6s 5s 20 27 mph 1027.7mb 75f 55f
2:50am 6ft 6s 5s 20 27 mph 1027.5mb 75f 56f
1:50am 6ft 7s 5s 20 27 mph 1027.6mb 75f 57f
12:50am 6ft 7s 5s 22 29 mph 1027.7mb 75f 57f
Thu 11/27 11:50pm 6ft 6s 5s 22 29 mph 1027.9mb 75f 58f
10:50pm 6ft 6s 5s 22 29 mph 1028mb 75f 59f
9:50pm 6.5ft 6s 5s 22 29 mph 1028.1mb 75f 60f
8:50pm 6ft 6s 5s 25 29 mph 1027.7mb 75f 61f
7:50pm 6ft 7s 5s 25 29 mph 1027.4mb 75f 62f
6:50pm 6ft 7s 5s 22 29 mph 1027mb 75f 62f
5:50pm 5.5ft 7s 5s 22 27 mph 1026.6mb 75f 62f
4:50pm 6ft 7s 5s 22 29 mph 1026mb 75f 62f
3:50pm 5.5ft 7s 5s 20 27 mph 1025.5mb 75f 62f
2:50pm 5.5ft 7s 5s 20 25 mph 1025.2mb 75f 63f
1:50pm 5.5ft 7s 5s 20 29 mph 1025.2mb 75f 63f
12:50pm 6ft 7s 5s 18 22 mph 1025.6mb 75f 63f
11:50am 6ft 7s 5s 18 25 mph 1026.3mb 76f 63f
10:50am 6.5ft 8s 5s 18 25 mph 1027.1mb 76f 64f
9:50am 7ft 8s 5s 20 25 mph 1027.3mb 76f 65f
8:50am 8ft 8s 6s 20 27 mph 1027mb 76f 65f
7:50am 9ft 8s 6s 20 25 mph 1026.7mb 76f 66f
6:50am 8.5ft 8s 6s 25 31 mph 1026mb 76f 67f
5:50am 9ft 7s 6s 22 27 mph 1024.9mb 76f 69f
4:50am 9ft 7s 6s 25 31 mph 1024.2mb 76f 69f
3:50am 7.5ft 6s 5s 27 31 mph 1023.9mb 76f 69f
2:50am 7ft 6s 5s 27 34 mph 1023.7mb 76f 69f
1:50am 6ft 5s 5s 25 31 mph 1023.9mb 76f 68f
12:50am 4.5ft 5s 4s 25 31 mph 1024mb 76f 69f
Wed 11/26 11:50pm 3.5ft 4s 4s 22 29 mph 1024.1mb 76f 68f
10:50pm 3ft 5s 4s 20 25 mph 1024.2mb 76f 67f
9:50pm 3ft 5s 4s 16 20 mph 1024.4mb 76f 66f
8:50pm 3.5ft 5s 4s 13 18 mph 1024.4mb 76f 65f
7:50pm 3.5ft 6s 4s 11 13 mph 1023.9mb 76f 65f
6:50pm 3.5ft 6s 4s 9 16 mph 1023.9mb 76f 64f
5:50pm 4ft 6s 4s 16 20 mph 1023.6mb 76f 64f
4:50pm 4.5ft 6s 5s 13 18 mph 1023.1mb 76f 64f
3:50pm 5ft 6s 5s 18 29 mph 1022.8mb 76f 64f
2:50pm 5.5ft 6s 5s 20 27 mph 1022.5mb 76f 64f
1:50pm 6ft 6s 5s 20 25 mph 1022.3mb 76f 63f
12:50pm 7ft 6s 5s 22 29 mph 1022.6mb 76f 63f
11:50am 7.5ft 7s 5s 25 29 mph 1023.1mb 76f 63f
10:50am 8ft 7s 5s 27 34 mph 1023.6mb 76f 62f
9:50am 8ft 6s 5s 27 34 mph 1023.3mb 76f 62f
8:50am 8ft 7s 5s 27 31 mph 1022.4mb 76f 62f
7:50am 6.5ft 7s 5s 25 31 mph 1021.9mb 76f 62f
6:50am 6ft 6s 5s 22 27 mph 1021.1mb 76f 62f
5:50am 5ft 6s 5s 25 31 mph 1019.9mb 76f 62f
4:50am 5.5ft 6s 5s 27 31 mph 1018.8mb 76f 62f
3:50am 5ft 6s 5s 25 31 mph 1018.5mb 76f 62f
2:50am 5.5ft 6s 5s 22 27 mph 1018.1mb 76f 62f
1:50am 7ft 7s 5s 22 29 mph 1017.9mb 76f 61f
12:50am 7ft 7s 5s 20 27 mph 1017.3mb 76f 60f
Tue 11/25 11:50pm 8.5ft 7s 6s 22 29 mph 1017.2mb 76f 60f
10:50pm 9ft 7s 6s 29 36 mph 1017.2mb 76f 59f
9:50pm 9.5ft 7s 6s 31 40 mph 1016.8mb 76f 61f
8:50pm 9ft 6s 5s 31 38 mph 1016.8mb 76f 61f
7:50pm 6ft 6s 5s 31 40 mph 1016.1mb 76f 62f
6:50pm 5ft 6s 5s 27 34 mph 1015.4mb 76f 65f
5:50pm 5ft 6s 5s 22 27 mph 1014.9mb 76f 66f
4:50pm 5.5ft 5s 5s 25 29 mph 1014.4mb 76f 65f
3:50pm 5ft 6s 5s 25 29 mph 1013.8mb 76f 65f
2:50pm 5ft 6s 5s 22 25 mph 1013.1mb 76f 67f
1:50pm 5ft 7s 5s 18 22 mph 1013.2mb 76f 66f
12:50pm 5ft 6s 5s 20 25 mph 1013.7mb 76f 66f
11:50am 5ft 6s 5s 20 25 mph 1015.2mb 76f 67f
10:50am 5.5ft 6s 5s 18 22 mph 1015.4mb 76f 68f
9:50am 5ft 6s 5s 18 22 mph 1016mb 76f 68f
8:50am 3.5ft 5s 4s 20 22 mph 1016.2mb 76f 68f
7:50am 3.5ft 5s 4s 20 25 mph 1015.7mb 76f 68f
6:50am 3.5ft 4s 4s 20 25 mph 1015.2mb 76f 68f
5:50am 3.5ft 7s 4s 20 25 mph 1015.2mb 76f 69f
4:50am 3.5ft 6s 5s 18 22 mph 1015.4mb 76f 69f
3:50am 3ft 6s 5s 16 20 mph 1014.5mb 76f 69f